Terminal Aerodrome Forecast
Issued by NWS New Orleans/Baton Rouge, LA

Home | Current Version | Previous Version | Text Only | Print | Product List | Glossary On
Versions: 1 2 3 4 5 6 7 8 9 10 11 12 13 14 15
000
FTUS44 KLIX 201138
TAFNEW
TAF
KNEW 201138Z 2012/2112 07016KT P6SM SKC
     FM201300 06012KT P6SM FEW250
     FM201800 08006KT P6SM FEW250
     FM210100 09005KT P6SM BKN200
     FM210600 05005KT P6SM BKN150=

USA.gov is the U.S. government's official web portal to all federal, state and local government web resources and services.